TimeCAT,TemperatureF,Dew PointF,Humidity,Sea Level PressureIn,VisibilityMPH,Wind Direction,Wind SpeedMPH,Gust SpeedMPH,PrecipitationIn,Events,Conditions,WindDirDegrees,DateUTC
12:00 AM,62.6,60.8,94,30.30,-9999.0,ESE,4.6,-,N/A,,Clear,110,2013-04-01 22:00:00
1:00 AM,62.6,60.8,94,30.30,-9999.0,East,5.8,-,N/A,,Clear,100,2013-04-01 23:00:00
2:00 AM,60,59,97,,19,East,5.8,,,,Scattered Clouds,80,2013-04-02 00:00:00
2:00 AM,60.8,59.0,94,30.27,-9999.0,East,5.8,-,N/A,,Clear,80,2013-04-02 00:00:00
5:00 AM,57.2,57.2,100,30.24,-9999.0,East,4.6,-,N/A,,Clear,90,2013-04-02 03:00:00
6:00 AM,57.2,57.2,100,30.24,-9999.0,ENE,4.6,-,N/A,,Clear,60,2013-04-02 04:00:00
7:00 AM,62.6,60.8,94,30.27,-9999.0,NNE,3.5,-,N/A,,Clear,30,2013-04-02 05:00:00
8:00 AM,65,61,83,,19,NNE,11.5,,,,Scattered Clouds,30,2013-04-02 06:00:00
8:00 AM,64.4,60.8,88,30.27,6.2,NNE,11.5,-,N/A,,Partly Cloudy,30,2013-04-02 06:00:00
9:00 AM,66.2,60.8,83,30.30,6.2,NE,11.5,-,N/A,,Mostly Cloudy,50,2013-04-02 07:00:00
10:00 AM,69.8,60.8,73,30.30,6.2,NNE,9.2,-,N/A,,Mostly Cloudy,20,2013-04-02 08:00:00
11:00 AM,71.6,60.8,69,30.30,6.2,NNE,8.1,-,N/A,,Mostly Cloudy,30,2013-04-02 09:00:00
12:00 PM,75.2,59.0,57,30.24,6.2,NNE,8.1,-,N/A,,Mostly Cloudy,20,2013-04-02 10:00:00
1:00 PM,75.2,59.0,57,30.21,6.2,North,5.8,-,N/A,,Scattered Clouds,350,2013-04-02 11:00:00
2:00 PM,76,57,42,,19,East,3.5,,,,Partly Cloudy,90,2013-04-02 12:00:00
2:00 PM,77.0,57.2,50,30.18,6.2,East,3.5,-,N/A,,Scattered Clouds,90,2013-04-02 12:00:00
3:00 PM,77.0,55.4,47,30.15,6.2,South,2.3,-,N/A,,Scattered Clouds,170,2013-04-02 13:00:00
4:00 PM,78.8,55.4,44,30.15,-9999.0,SW,5.8,-,N/A,,Clear,230,2013-04-02 14:00:00
5:00 PM,75.2,55.4,50,30.15,-9999.0,NW,5.8,-,N/A,,Clear,320,2013-04-02 15:00:00
6:00 PM,73.4,55.4,53,30.15,-9999.0,Calm,Calm,-,N/A,,Clear,0,2013-04-02 16:00:00
7:00 PM,71.6,59.0,64,30.15,-9999.0,NE,5.8,-,N/A,,Clear,40,2013-04-02 17:00:00
8:00 PM,69.8,59.0,68,30.18,-9999.0,NNE,6.9,-,N/A,,Clear,30,2013-04-02 18:00:00
9:00 PM,66.2,59.0,78,30.18,-9999.0,NNE,6.9,-,N/A,,Clear,20,2013-04-02 19:00:00
10:00 PM,64.4,59.0,83,30.18,-9999.0,ENE,3.5,-,N/A,,Clear,70,2013-04-02 20:00:00
11:00 PM,62.6,57.2,82,30.18,-9999.0,ENE,4.6,-,N/A,,Clear,70,2013-04-02 21:00:00